createdAt,value
2018-07-20T00:01:22.534Z,16.30
2018-07-20T00:03:49.955Z,16.20
2018-07-20T00:06:17.361Z,16.20
2018-07-20T00:08:44.801Z,16.20
2018-07-20T00:11:12.332Z,16.10
2018-07-20T00:13:39.745Z,16.20
2018-07-20T00:16:07.360Z,16.10
2018-07-20T00:18:34.727Z,16.10
2018-07-20T00:21:02.184Z,16.10
2018-07-20T00:23:29.568Z,16.00
2018-07-20T00:25:56.973Z,16.00
2018-07-20T00:28:24.316Z,16.00
2018-07-20T00:30:51.722Z,16.10
2018-07-20T00:33:19.092Z,16.00
2018-07-20T00:35:46.461Z,16.00
2018-07-20T00:38:13.294Z,15.90
2018-07-20T00:40:40.522Z,15.90
2018-07-20T00:43:07.240Z,15.90
2018-07-20T00:45:33.957Z,15.80
2018-07-20T00:48:01.210Z,15.80
2018-07-20T00:50:28.516Z,15.70
2018-07-20T00:52:55.745Z,15.70
2018-07-20T00:55:22.993Z,15.60
2018-07-20T00:57:50.231Z,15.60
2018-07-20T01:02:43.738Z,15.60
2018-07-20T01:05:11.017Z,15.60
2018-07-20T01:07:38.233Z,15.60
2018-07-20T01:10:05.499Z,15.60
2018-07-20T01:12:32.885Z,15.60
2018-07-20T01:15:00.125Z,15.50
2018-07-20T01:17:27.358Z,15.50
2018-07-20T01:19:54.985Z,15.50
2018-07-20T01:22:22.305Z,15.40
2018-07-20T01:24:49.570Z,15.40
2018-07-20T01:27:16.794Z,15.40
2018-07-20T01:29:44.096Z,15.30
2018-07-20T01:32:11.453Z,15.30
2018-07-20T01:34:38.804Z,15.30
2018-07-20T01:37:06.090Z,15.30
2018-07-20T01:39:33.389Z,15.30
2018-07-20T01:42:00.593Z,15.20
2018-07-20T01:44:27.826Z,15.20
2018-07-20T01:46:55.074Z,15.20
2018-07-20T01:49:22.311Z,15.20
2018-07-20T01:51:49.557Z,15.10
2018-07-20T01:54:16.783Z,15.10
2018-07-20T01:56:44.276Z,15.10
2018-07-20T01:59:11.541Z,15.10
2018-07-20T02:01:38.774Z,15.10
2018-07-20T02:04:06.236Z,15.10
2018-07-20T02:06:33.484Z,15.00
2018-07-20T02:09:00.706Z,15.00
2018-07-20T02:11:27.937Z,15.00
2018-07-20T02:13:55.235Z,15.00
2018-07-20T02:16:22.440Z,14.90
2018-07-20T02:18:49.641Z,14.90
2018-07-20T02:21:16.946Z,14.90
2018-07-20T02:26:11.528Z,14.90
2018-07-20T02:28:38.782Z,14.90
2018-07-20T02:31:06.302Z,14.90
2018-07-20T02:33:33.540Z,14.90
2018-07-20T02:36:00.829Z,14.80
2018-07-20T02:38:28.129Z,14.80
2018-07-20T02:40:55.351Z,14.80
2018-07-20T02:43:22.576Z,14.80
2018-07-20T02:45:49.932Z,14.70
2018-07-20T02:48:17.140Z,14.70
2018-07-20T02:50:44.647Z,14.70
2018-07-20T02:53:11.841Z,14.70
2018-07-20T02:55:39.024Z,14.70
2018-07-20T02:58:06.637Z,14.60
2018-07-20T03:03:01.061Z,14.60
2018-07-20T03:05:28.287Z,14.50
2018-07-20T03:07:55.516Z,14.50
2018-07-20T03:10:22.772Z,14.40
2018-07-20T03:15:17.265Z,14.40
2018-07-20T03:17:44.552Z,14.40
2018-07-20T03:20:11.800Z,14.50
2018-07-20T03:22:39.053Z,14.40
2018-07-20T03:25:06.278Z,14.40
2018-07-20T03:27:33.721Z,14.40
2018-07-20T03:32:28.341Z,14.30
2018-07-20T03:34:55.584Z,14.40
2018-07-20T03:37:23.388Z,14.30
2018-07-20T03:39:50.773Z,14.40
2018-07-20T03:42:17.987Z,14.40
2018-07-20T03:44:45.222Z,14.40
2018-07-20T03:47:12.453Z,14.40
2018-07-20T03:49:39.808Z,14.30
2018-07-20T03:52:07.360Z,14.30
2018-07-20T03:54:34.633Z,14.40
2018-07-20T03:57:01.913Z,14.40
2018-07-20T03:59:29.096Z,14.50
2018-07-20T04:01:56.347Z,14.50
2018-07-20T04:04:23.582Z,14.50
2018-07-20T04:06:50.836Z,14.50
2018-07-20T04:09:18.101Z,14.50
2018-07-20T04:11:45.360Z,14.50
2018-07-20T04:14:12.620Z,14.50
2018-07-20T04:16:39.955Z,14.50
2018-07-20T04:19:07.414Z,14.50
2018-07-20T04:21:34.665Z,14.50
2018-07-20T04:24:01.916Z,14.60
2018-07-20T04:26:29.125Z,14.60
2018-07-20T04:28:56.320Z,14.70
2018-07-20T04:31:23.571Z,14.80
2018-07-20T04:33:50.823Z,14.90
2018-07-20T04:36:18.050Z,14.90
2018-07-20T04:38:45.280Z,15.00
2018-07-20T04:41:12.517Z,15.10
2018-07-20T04:46:07.141Z,15.30
2018-07-20T04:48:34.342Z,15.20
2018-07-20T04:51:01.589Z,15.30
2018-07-20T04:53:28.788Z,15.40
2018-07-20T04:55:56.029Z,15.50
2018-07-20T04:58:23.447Z,15.50
2018-07-20T05:01:16.551Z,15.60
2018-07-20T05:03:43.949Z,15.60
2018-07-20T05:06:11.271Z,15.70
2018-07-20T05:08:38.454Z,15.80
2018-07-20T05:13:32.955Z,15.90
2018-07-20T05:16:00.177Z,15.90
2018-07-20T05:18:27.409Z,16.00
2018-07-20T05:23:21.912Z,16.10
2018-07-20T05:25:49.422Z,16.20
2018-07-20T05:28:16.597Z,16.20
2018-07-20T05:30:44.141Z,16.40
2018-07-20T05:33:11.465Z,16.50
2018-07-20T05:35:38.691Z,16.50
2018-07-20T05:38:06.148Z,16.60
2018-07-20T05:40:33.372Z,16.70
2018-07-20T05:43:00.628Z,16.60
2018-07-20T05:45:28.143Z,16.70
2018-07-20T05:47:55.376Z,16.70
2018-07-20T05:50:22.612Z,16.90
2018-07-20T05:52:49.856Z,17.10
2018-07-20T05:55:16.540Z,17.30
2018-07-20T05:57:43.405Z,17.50
2018-07-20T06:00:10.146Z,17.40
2018-07-20T06:02:36.863Z,17.50
2018-07-20T06:05:03.585Z,17.50
2018-07-20T06:07:30.288Z,17.60
2018-07-20T06:09:57.133Z,17.70
2018-07-20T06:12:23.844Z,17.70
2018-07-20T06:14:50.616Z,17.80
2018-07-20T06:17:17.484Z,17.90
2018-07-20T06:19:44.204Z,18.00
2018-07-20T06:22:10.934Z,18.30
2018-07-20T06:24:37.672Z,18.40
2018-07-20T06:27:04.489Z,18.60
2018-07-20T06:29:31.387Z,18.70
2018-07-20T06:31:58.622Z,18.90
2018-07-20T06:34:25.909Z,18.90
2018-07-20T06:36:53.142Z,19.10
2018-07-20T06:39:20.392Z,19.10
2018-07-20T06:41:47.797Z,19.30
2018-07-20T06:44:15.087Z,19.30
2018-07-20T06:46:42.294Z,19.50
2018-07-20T06:49:09.596Z,19.50
2018-07-20T06:51:37.028Z,19.60
2018-07-20T06:54:05.096Z,19.80
2018-07-20T06:56:32.333Z,19.90
2018-07-20T06:58:59.646Z,19.80
2018-07-20T07:01:26.853Z,20.00
2018-07-20T07:03:54.049Z,20.10
2018-07-20T07:06:21.311Z,20.10
2018-07-20T07:08:48.533Z,20.30
2018-07-20T07:11:15.840Z,20.10
2018-07-20T07:13:43.100Z,20.30
2018-07-20T07:16:10.345Z,20.70
2018-07-20T07:18:37.084Z,20.60
2018-07-20T07:21:04.290Z,20.50
2018-07-20T07:23:31.816Z,20.70
2018-07-20T07:25:59.046Z,20.90
2018-07-20T07:28:26.279Z,20.80
2018-07-20T07:30:53.515Z,20.80
2018-07-20T07:33:20.707Z,20.80
2018-07-20T07:35:47.936Z,21.10
2018-07-20T07:40:42.650Z,21.20
2018-07-20T07:43:09.359Z,21.50
2018-07-20T07:45:36.614Z,21.60
2018-07-20T07:48:03.856Z,21.80
2018-07-20T07:52:58.380Z,21.40
2018-07-20T07:55:25.585Z,21.60
2018-07-20T07:57:52.835Z,21.80
2018-07-20T08:02:47.482Z,22.30
2018-07-20T08:05:14.167Z,22.40
2018-07-20T08:07:40.911Z,22.70
2018-07-20T08:10:08.395Z,22.70
2018-07-20T08:12:35.400Z,22.50
2018-07-20T08:15:02.732Z,22.60
2018-07-20T08:17:29.467Z,22.70
2018-07-20T08:19:56.164Z,23.20
2018-07-20T08:22:22.891Z,23.40
2018-07-20T08:24:49.647Z,23.40
2018-07-20T08:27:16.352Z,23.30
2018-07-20T08:29:43.887Z,23.20
2018-07-20T08:32:11.658Z,23.60
2018-07-20T08:34:38.859Z,23.60
2018-07-20T08:37:06.104Z,23.40
2018-07-20T08:39:33.318Z,23.30
2018-07-20T08:42:00.531Z,23.60
2018-07-20T08:44:27.783Z,23.60
2018-07-20T08:46:55.228Z,23.80
2018-07-20T08:49:22.439Z,24.10
2018-07-20T08:51:49.666Z,24.10
2018-07-20T08:54:16.887Z,24.00
2018-07-20T08:56:44.148Z,24.20
2018-07-20T08:59:11.336Z,23.90
2018-07-20T09:01:38.555Z,24.00
2018-07-20T09:04:05.785Z,24.00
2018-07-20T09:06:33.014Z,24.10
2018-07-20T09:09:00.243Z,24.20
2018-07-20T09:11:27.452Z,24.10
2018-07-20T09:13:54.300Z,23.90
2018-07-20T09:16:21.091Z,23.80
2018-07-20T09:18:48.131Z,24.10
2018-07-20T09:21:14.864Z,24.00
2018-07-20T09:23:41.641Z,24.00
2018-07-20T09:26:08.419Z,24.00
2018-07-20T09:28:35.147Z,24.20
2018-07-20T09:31:01.929Z,24.20
2018-07-20T09:33:28.612Z,23.80
2018-07-20T09:35:55.361Z,23.60
2018-07-20T09:38:22.056Z,23.60
2018-07-20T09:40:48.808Z,23.40
2018-07-20T09:43:16.024Z,23.40
2018-07-20T09:45:43.248Z,23.60
2018-07-20T09:48:10.514Z,23.50
2018-07-20T09:50:37.762Z,23.80
2018-07-20T09:53:05.407Z,23.90
2018-07-20T09:55:32.617Z,23.70
2018-07-20T09:57:59.812Z,23.80
2018-07-20T10:00:32.807Z,23.80
2018-07-20T10:03:00.157Z,23.90
2018-07-20T10:05:27.363Z,24.00
2018-07-20T10:07:54.606Z,23.90
2018-07-20T10:10:21.809Z,24.10
2018-07-20T10:12:49.009Z,24.30
2018-07-20T10:15:16.217Z,24.20
2018-07-20T10:17:43.573Z,24.50
2018-07-20T10:20:10.372Z,24.60
2018-07-20T10:22:37.100Z,24.70
2018-07-20T10:25:03.820Z,24.70
2018-07-20T10:27:30.556Z,24.80
2018-07-20T10:29:57.327Z,24.90
2018-07-20T10:32:24.073Z,25.10
2018-07-20T10:34:50.810Z,25.30
2018-07-20T10:37:17.541Z,25.30
2018-07-20T10:39:44.347Z,25.60
2018-07-20T10:42:11.107Z,25.70
2018-07-20T10:44:38.335Z,25.60
2018-07-20T10:47:05.037Z,25.80
2018-07-20T10:49:31.744Z,26.00
2018-07-20T10:51:58.718Z,26.00
2018-07-20T10:54:25.427Z,26.10
2018-07-20T10:56:52.115Z,26.30
2018-07-20T10:59:19.192Z,26.40
2018-07-20T11:01:45.918Z,26.60
2018-07-20T11:04:13.113Z,26.40
2018-07-20T11:11:35.293Z,26.80
2018-07-20T11:14:02.118Z,26.80
2018-07-20T11:16:29.343Z,27.20
2018-07-20T11:18:56.113Z,27.40
2018-07-20T11:21:22.853Z,27.30
2018-07-20T11:26:16.608Z,28.20
2018-07-20T11:28:43.384Z,29.10
2018-07-20T11:31:10.118Z,29.60
2018-07-20T11:33:36.896Z,30.40
2018-07-20T11:36:03.608Z,30.90
2018-07-20T11:38:30.825Z,31.40
2018-07-20T11:40:58.264Z,31.00
2018-07-20T11:43:25.798Z,31.50
2018-07-20T11:45:52.979Z,32.20
2018-07-20T11:48:20.248Z,31.70
2018-07-20T11:50:47.531Z,32.20
2018-07-20T11:53:14.820Z,32.40
2018-07-20T11:55:42.011Z,33.40
2018-07-20T12:00:36.466Z,34.20
2018-07-20T12:03:03.810Z,34.00
2018-07-20T12:05:31.130Z,34.80
2018-07-20T12:07:58.380Z,34.80
2018-07-20T12:10:25.684Z,35.20
2018-07-20T12:12:53.479Z,35.50
2018-07-20T12:15:20.790Z,34.90
2018-07-20T12:17:48.058Z,34.70
2018-07-20T12:20:15.332Z,35.10
2018-07-20T12:22:42.556Z,35.00
2018-07-20T12:25:09.812Z,35.40
2018-07-20T12:27:37.026Z,36.20
2018-07-20T12:30:04.832Z,36.70
2018-07-20T12:32:32.048Z,37.20
2018-07-20T12:34:59.295Z,37.40
2018-07-20T12:37:26.549Z,37.60
2018-07-20T12:39:53.735Z,38.40
2018-07-20T12:42:20.981Z,35.60
2018-07-20T12:44:48.309Z,35.60
2018-07-20T12:47:16.004Z,37.00
2018-07-20T12:49:43.252Z,36.70
2018-07-20T12:52:10.514Z,37.40
2018-07-20T12:54:37.780Z,37.50
2018-07-20T12:57:05.049Z,38.00
2018-07-20T12:59:32.252Z,37.80
2018-07-20T13:01:59.552Z,36.50
2018-07-20T13:04:26.785Z,37.30
2018-07-20T13:06:54.026Z,37.50
2018-07-20T13:09:21.259Z,39.00
2018-07-20T13:11:48.553Z,39.00
2018-07-20T13:14:15.752Z,38.70
2018-07-20T13:16:43.319Z,39.80
2018-07-20T13:19:10.624Z,39.30
2018-07-20T13:21:37.885Z,40.60
2018-07-20T13:24:05.330Z,41.20
2018-07-20T13:26:32.675Z,41.40
2018-07-20T13:29:00.012Z,41.30
2018-07-20T13:34:01.341Z,42.70
2018-07-20T13:36:28.648Z,42.60
2018-07-20T13:38:55.924Z,41.30
2018-07-20T13:41:23.148Z,40.10
2018-07-20T13:43:50.465Z,40.60
2018-07-20T13:46:18.644Z,42.00
2018-07-20T13:48:45.873Z,41.40
2018-07-20T13:51:13.184Z,42.30
2018-07-20T13:53:40.480Z,43.10
2018-07-20T13:56:07.752Z,42.70
2018-07-20T13:58:34.956Z,42.80
2018-07-20T14:01:02.183Z,42.50
2018-07-20T14:03:29.391Z,42.50
2018-07-20T14:05:56.585Z,43.40
2018-07-20T14:08:23.798Z,43.40
2018-07-20T14:10:51.055Z,43.90
2018-07-20T14:13:18.296Z,45.10
2018-07-20T14:15:45.549Z,44.90
2018-07-20T14:18:12.903Z,43.40
2018-07-20T14:20:40.131Z,43.50
2018-07-20T14:23:10.121Z,43.10
2018-07-20T14:25:37.989Z,43.40
2018-07-20T14:28:05.267Z,43.40
2018-07-20T14:30:32.484Z,44.10
2018-07-20T14:32:59.802Z,43.70
2018-07-20T14:35:27.173Z,43.00
2018-07-20T14:37:54.405Z,44.00
2018-07-20T14:40:21.765Z,44.20
2018-07-20T14:42:49.023Z,43.40
2018-07-20T14:45:16.262Z,43.90
2018-07-20T14:50:11.038Z,43.20
2018-07-20T14:52:38.280Z,43.30
2018-07-20T14:55:05.551Z,43.30
2018-07-20T14:57:32.797Z,42.90
2018-07-20T15:00:00.860Z,41.50
2018-07-20T15:02:28.206Z,42.10
2018-07-20T15:04:55.027Z,41.50
2018-07-20T15:07:22.896Z,41.80
2018-07-20T15:09:50.198Z,41.40
2018-07-20T15:12:17.842Z,40.40
2018-07-20T15:14:45.164Z,40.50
2018-07-20T15:17:12.050Z,40.90
2018-07-20T15:19:39.259Z,40.70
2018-07-20T15:22:06.523Z,40.60
2018-07-20T15:24:33.820Z,40.70
2018-07-20T15:27:01.175Z,41.30
2018-07-20T15:29:28.454Z,41.70
2018-07-20T15:31:55.917Z,41.10
2018-07-20T15:34:22.601Z,40.10
2018-07-20T15:36:49.348Z,39.80
2018-07-20T15:39:16.207Z,39.20
2018-07-20T15:41:42.997Z,38.70
2018-07-20T15:44:09.729Z,40.20
2018-07-20T15:46:36.567Z,40.40
2018-07-20T15:49:03.184Z,41.30
2018-07-20T15:51:55.490Z,41.80
2018-07-20T15:54:03.510Z,42.90
2018-07-20T15:56:30.227Z,41.60
2018-07-20T15:58:57.407Z,39.10
2018-07-20T16:01:24.276Z,37.90
2018-07-20T16:03:51.623Z,38.00
2018-07-20T16:06:19.074Z,37.90
2018-07-20T16:08:46.394Z,38.30
2018-07-20T16:11:13.783Z,38.30
2018-07-20T16:13:41.266Z,39.60
2018-07-20T16:16:08.538Z,39.50
2018-07-20T16:18:36.317Z,40.30
2018-07-20T16:21:03.048Z,41.10
2018-07-20T16:23:29.811Z,40.80
2018-07-20T16:25:57.207Z,39.40
2018-07-20T16:30:51.572Z,36.40
2018-07-20T16:33:18.926Z,36.20
2018-07-20T16:35:46.218Z,35.20
2018-07-20T16:38:13.544Z,34.60
2018-07-20T16:40:40.794Z,34.00
2018-07-20T16:43:07.998Z,32.70
2018-07-20T16:45:35.508Z,32.20
2018-07-20T16:48:02.770Z,32.00
2018-07-20T16:50:30.010Z,31.80
2018-07-20T16:52:57.264Z,31.70
2018-07-20T16:55:24.516Z,31.40
2018-07-20T16:57:51.684Z,33.00
2018-07-20T17:00:18.867Z,34.40
2018-07-20T17:02:46.173Z,35.90
2018-07-20T17:05:13.491Z,36.00
2018-07-20T17:07:40.668Z,36.20
2018-07-20T17:10:08.284Z,35.70
2018-07-20T17:12:35.561Z,36.00
2018-07-20T17:17:30.092Z,36.10
2018-07-20T17:19:57.496Z,36.50
2018-07-20T17:22:24.759Z,37.50
2018-07-20T17:24:52.004Z,38.00
2018-07-20T17:27:19.859Z,37.60
2018-07-20T17:29:47.069Z,37.70
2018-07-20T17:32:14.338Z,36.90
2018-07-20T17:34:41.546Z,35.50
2018-07-20T17:37:08.776Z,34.10
2018-07-20T17:39:35.996Z,32.80
2018-07-20T17:42:03.231Z,32.20
2018-07-20T17:44:30.488Z,31.50
2018-07-20T17:46:57.730Z,31.20
2018-07-20T17:49:24.945Z,30.80
2018-07-20T17:51:52.190Z,30.40
2018-07-20T17:54:19.453Z,29.80
2018-07-20T17:56:46.678Z,29.60
2018-07-20T17:59:14.013Z,29.20
2018-07-20T18:01:40.840Z,29.10
2018-07-20T18:04:08.167Z,28.80
2018-07-20T18:06:35.471Z,28.60
2018-07-20T18:09:03.686Z,28.30
2018-07-20T18:11:31.043Z,28.20
2018-07-20T18:13:58.517Z,27.80
2018-07-20T18:16:25.758Z,27.50
2018-07-20T18:18:52.963Z,27.30
2018-07-20T18:21:20.195Z,27.10
2018-07-20T18:23:47.714Z,26.80
2018-07-20T18:26:14.932Z,26.50
2018-07-20T18:28:42.189Z,26.30
2018-07-20T18:31:09.706Z,26.20
2018-07-20T18:33:36.944Z,25.90
2018-07-20T18:36:04.293Z,25.80
2018-07-20T18:38:31.483Z,25.50
2018-07-20T18:40:58.734Z,25.40
2018-07-20T18:43:25.996Z,25.30
2018-07-20T18:45:53.325Z,25.10
2018-07-20T18:48:20.589Z,25.00
2018-07-20T18:50:47.944Z,24.90
2018-07-20T18:53:15.201Z,24.70
2018-07-20T18:55:42.903Z,24.70
2018-07-20T18:58:10.316Z,24.60
2018-07-20T19:00:37.520Z,24.50
2018-07-20T19:03:04.772Z,24.40
2018-07-20T19:05:32.003Z,24.30
2018-07-20T19:07:59.230Z,24.20
2018-07-20T19:10:26.483Z,24.10
2018-07-20T19:12:53.735Z,24.00
2018-07-20T19:15:21.001Z,24.00
2018-07-20T19:17:48.325Z,23.90
2018-07-20T19:20:15.824Z,23.80
2018-07-20T19:22:43.238Z,23.60
2018-07-20T19:25:10.484Z,23.60
2018-07-20T19:27:37.743Z,23.50
2018-07-20T19:30:04.988Z,23.40
2018-07-20T19:32:32.209Z,23.30
2018-07-20T19:34:59.465Z,23.20
2018-07-20T19:37:26.843Z,23.10
2018-07-20T19:39:54.068Z,22.90
2018-07-20T19:42:21.306Z,22.80
2018-07-20T19:44:48.633Z,22.70
2018-07-20T19:47:16.107Z,22.60
2018-07-20T19:49:43.446Z,22.50
2018-07-20T19:52:10.668Z,22.50
2018-07-20T19:54:37.899Z,22.40
2018-07-20T19:57:05.338Z,22.30
2018-07-20T19:59:32.079Z,22.20
2018-07-20T20:01:58.843Z,22.10
2018-07-20T20:04:26.126Z,22.10
2018-07-20T20:06:53.294Z,22.00
2018-07-20T20:09:20.472Z,21.90
2018-07-20T20:11:47.774Z,21.80
2018-07-20T20:14:14.992Z,21.70
2018-07-20T20:16:42.205Z,21.70
2018-07-20T20:19:09.596Z,21.60
2018-07-20T20:21:36.828Z,21.60
2018-07-20T20:24:04.072Z,21.50
2018-07-20T20:26:31.346Z,21.50
2018-07-20T20:28:58.599Z,21.50
2018-07-20T20:31:25.940Z,21.40
2018-07-20T20:33:53.326Z,21.30
2018-07-20T20:36:20.579Z,21.30
2018-07-20T20:38:47.796Z,21.30
2018-07-20T20:41:15.126Z,21.20
2018-07-20T20:43:42.457Z,21.10
2018-07-20T20:46:09.652Z,21.00
2018-07-20T20:48:37.290Z,20.90
2018-07-20T20:53:31.816Z,20.90
2018-07-20T20:55:59.080Z,20.90
2018-07-20T20:58:26.296Z,20.90
2018-07-20T21:00:53.484Z,20.90
2018-07-20T21:03:20.701Z,20.80
2018-07-20T21:05:48.239Z,20.80
2018-07-20T21:10:42.685Z,20.80
2018-07-20T21:13:09.887Z,20.70
2018-07-20T21:15:37.105Z,20.70
2018-07-20T21:18:04.303Z,20.60
2018-07-20T21:20:31.524Z,20.60
2018-07-20T21:22:58.948Z,20.50
2018-07-20T21:25:26.183Z,20.50
2018-07-20T21:27:53.381Z,20.50
2018-07-20T21:30:22.243Z,20.50
2018-07-20T21:32:49.653Z,20.30
2018-07-20T21:35:16.923Z,20.30
2018-07-20T21:37:44.116Z,20.20
2018-07-20T21:40:11.621Z,20.20
2018-07-20T21:42:38.835Z,20.30
2018-07-20T21:45:06.041Z,20.20
2018-07-20T21:47:33.276Z,20.20
2018-07-20T21:50:00.472Z,20.20
2018-07-20T21:52:27.709Z,20.10
2018-07-20T21:54:54.895Z,20.00
2018-07-20T21:57:22.139Z,20.00
2018-07-20T21:59:49.323Z,20.00
2018-07-20T22:02:16.858Z,19.90
2018-07-20T22:05:05.518Z,19.80
2018-07-20T22:07:33.112Z,19.70
2018-07-20T22:10:00.460Z,19.70
2018-07-20T22:12:27.717Z,19.70
2018-07-20T22:14:55.122Z,19.70
2018-07-20T22:17:22.325Z,19.70
2018-07-20T22:19:49.602Z,19.60
2018-07-20T22:22:16.890Z,19.50
2018-07-20T22:24:44.112Z,19.50
2018-07-20T22:27:11.357Z,19.40
2018-07-20T22:29:38.572Z,19.40
2018-07-20T22:32:05.809Z,19.30
2018-07-20T22:34:33.062Z,19.30
2018-07-20T22:37:00.318Z,19.30
2018-07-20T22:39:27.520Z,19.30
2018-07-20T22:41:54.716Z,19.20
2018-07-20T22:44:21.945Z,19.30
2018-07-20T22:46:49.380Z,19.30
2018-07-20T22:49:16.880Z,19.40
2018-07-20T22:51:44.084Z,19.30
2018-07-20T22:54:11.340Z,19.20
2018-07-20T22:56:38.628Z,19.10
2018-07-20T22:59:05.859Z,19.10
2018-07-20T23:01:33.050Z,19.10
2018-07-20T23:04:00.252Z,19.00
2018-07-20T23:06:27.434Z,19.00
2018-07-20T23:08:54.659Z,19.00
2018-07-20T23:11:21.840Z,19.00
2018-07-20T23:16:16.313Z,19.00
2018-07-20T23:18:43.545Z,19.10
2018-07-20T23:21:10.779Z,19.00
2018-07-20T23:23:37.995Z,19.00
2018-07-20T23:26:05.178Z,18.90
2018-07-20T23:28:32.392Z,18.90
2018-07-20T23:30:59.556Z,18.80
2018-07-20T23:33:26.723Z,18.80
2018-07-20T23:35:53.911Z,18.70
2018-07-20T23:38:21.142Z,18.60
2018-07-20T23:40:48.307Z,18.70
2018-07-20T23:43:15.538Z,18.60
2018-07-20T23:45:42.820Z,18.60
2018-07-20T23:48:10.003Z,18.60
2018-07-20T23:50:37.316Z,18.60
2018-07-20T23:53:04.543Z,18.60
2018-07-20T23:55:31.865Z,18.60
2018-07-20T23:57:59.032Z,18.60
